sensor_id;sensor_type;location;lat;lon;timestamp;P1;durP1;ratioP1;P2;durP2;ratioP2
11763;SDS011;5939;56.522;14.950;2023-04-06T00:01:06;0.93;;;0.80;;
11763;SDS011;5939;56.522;14.950;2023-04-06T00:03:32;1.37;;;1.00;;
11763;SDS011;5939;56.522;14.950;2023-04-06T00:05:59;0.87;;;0.87;;
11763;SDS011;5939;56.522;14.950;2023-04-06T00:08:25;0.87;;;0.80;;
11763;SDS011;5939;56.522;14.950;2023-04-06T00:10:51;0.80;;;0.70;;
11763;SDS011;5939;56.522;14.950;2023-04-06T00:13:17;1.83;;;0.90;;
11763;SDS011;5939;56.522;14.950;2023-04-06T00:15:43;0.87;;;0.70;;
11763;SDS011;5939;56.522;14.950;2023-04-06T00:18:09;0.90;;;0.90;;
11763;SDS011;5939;56.522;14.950;2023-04-06T00:20:34;0.80;;;0.80;;
11763;SDS011;5939;56.522;14.950;2023-04-06T00:23:00;1.03;;;0.90;;
11763;SDS011;5939;56.522;14.950;2023-04-06T00:25:26;0.70;;;0.70;;
11763;SDS011;5939;56.522;14.950;2023-04-06T00:27:51;0.70;;;0.70;;
11763;SDS011;5939;56.522;14.950;2023-04-06T00:30:17;1.27;;;0.90;;
11763;SDS011;5939;56.522;14.950;2023-04-06T00:32:43;0.80;;;0.80;;
11763;SDS011;5939;56.522;14.950;2023-04-06T00:35:09;1.03;;;0.87;;
11763;SDS011;5939;56.522;14.950;2023-04-06T00:37:35;0.77;;;0.77;;
11763;SDS011;5939;56.522;14.950;2023-04-06T00:40:01;0.80;;;0.80;;
11763;SDS011;5939;56.522;14.950;2023-04-06T00:42:27;1.00;;;0.90;;
11763;SDS011;5939;56.522;14.950;2023-04-06T00:44:53;1.13;;;0.97;;
11763;SDS011;5939;56.522;14.950;2023-04-06T00:47:20;1.00;;;0.90;;
11763;SDS011;5939;56.522;14.950;2023-04-06T00:49:47;1.20;;;0.87;;
11763;SDS011;5939;56.522;14.950;2023-04-06T00:52:13;0.70;;;0.70;;
11763;SDS011;5939;56.522;14.950;2023-04-06T00:54:40;0.97;;;0.90;;
11763;SDS011;5939;56.522;14.950;2023-04-06T00:57:06;0.80;;;0.80;;
11763;SDS011;5939;56.522;14.950;2023-04-06T00:59:31;1.27;;;1.10;;
11763;SDS011;5939;56.522;14.950;2023-04-06T01:01:57;1.77;;;1.00;;
11763;SDS011;5939;56.522;14.950;2023-04-06T01:04:23;0.90;;;0.90;;
11763;SDS011;5939;56.522;14.950;2023-04-06T01:06:49;1.47;;;1.17;;
11763;SDS011;5939;56.522;14.950;2023-04-06T01:09:16;0.87;;;0.87;;
11763;SDS011;5939;56.522;14.950;2023-04-06T01:11:42;1.80;;;1.23;;
11763;SDS011;5939;56.522;14.950;2023-04-06T01:14:08;1.30;;;1.17;;
11763;SDS011;5939;56.522;14.950;2023-04-06T01:16:34;1.13;;;1.00;;
11763;SDS011;5939;56.522;14.950;2023-04-06T01:19:00;1.43;;;1.00;;
11763;SDS011;5939;56.522;14.950;2023-04-06T01:21:26;1.20;;;1.10;;
11763;SDS011;5939;56.522;14.950;2023-04-06T01:23:52;1.70;;;1.30;;
11763;SDS011;5939;56.522;14.950;2023-04-06T01:26:18;2.33;;;1.23;;
11763;SDS011;5939;56.522;14.950;2023-04-06T01:28:43;1.30;;;1.20;;
11763;SDS011;5939;56.522;14.950;2023-04-06T01:31:09;1.37;;;1.17;;
11763;SDS011;5939;56.522;14.950;2023-04-06T01:33:35;1.20;;;1.10;;
11763;SDS011;5939;56.522;14.950;2023-04-06T01:36:01;2.20;;;1.37;;
11763;SDS011;5939;56.522;14.950;2023-04-06T01:38:28;2.53;;;1.30;;
11763;SDS011;5939;56.522;14.950;2023-04-06T01:40:54;1.93;;;1.20;;
11763;SDS011;5939;56.522;14.950;2023-04-06T01:43:20;1.33;;;1.13;;
11763;SDS011;5939;56.522;14.950;2023-04-06T01:45:45;4.70;;;1.40;;
11763;SDS011;5939;56.522;14.950;2023-04-06T01:48:11;3.10;;;1.30;;
11763;SDS011;5939;56.522;14.950;2023-04-06T01:50:37;1.63;;;1.20;;
11763;SDS011;5939;56.522;14.950;2023-04-06T01:53:02;1.70;;;1.23;;
11763;SDS011;5939;56.522;14.950;2023-04-06T01:55:28;1.20;;;1.10;;
11763;SDS011;5939;56.522;14.950;2023-04-06T01:57:54;1.37;;;1.10;;
11763;SDS011;5939;56.522;14.950;2023-04-06T02:00:19;3.80;;;1.27;;
11763;SDS011;5939;56.522;14.950;2023-04-06T02:02:45;2.00;;;1.30;;
11763;SDS011;5939;56.522;14.950;2023-04-06T02:05:11;1.30;;;1.20;;
11763;SDS011;5939;56.522;14.950;2023-04-06T02:07:36;2.40;;;1.30;;
11763;SDS011;5939;56.522;14.950;2023-04-06T02:10:02;2.13;;;1.37;;
11763;SDS011;5939;56.522;14.950;2023-04-06T02:12:28;2.10;;;1.40;;
11763;SDS011;5939;56.522;14.950;2023-04-06T02:14:54;2.63;;;1.40;;
11763;SDS011;5939;56.522;14.950;2023-04-06T02:17:20;2.43;;;1.40;;
11763;SDS011;5939;56.522;14.950;2023-04-06T02:19:45;2.40;;;1.30;;
11763;SDS011;5939;56.522;14.950;2023-04-06T02:22:11;5.17;;;1.60;;
11763;SDS011;5939;56.522;14.950;2023-04-06T02:24:37;2.60;;;1.60;;
11763;SDS011;5939;56.522;14.950;2023-04-06T02:27:02;2.20;;;1.47;;
11763;SDS011;5939;56.522;14.950;2023-04-06T02:29:28;2.87;;;1.53;;
11763;SDS011;5939;56.522;14.950;2023-04-06T02:31:54;3.37;;;1.20;;
11763;SDS011;5939;56.522;14.950;2023-04-06T02:34:20;3.03;;;1.43;;
11763;SDS011;5939;56.522;14.950;2023-04-06T02:36:46;2.17;;;1.40;;
11763;SDS011;5939;56.522;14.950;2023-04-06T02:39:12;2.07;;;1.50;;
11763;SDS011;5939;56.522;14.950;2023-04-06T02:41:38;2.07;;;1.30;;
11763;SDS011;5939;56.522;14.950;2023-04-06T02:44:06;2.47;;;1.47;;
11763;SDS011;5939;56.522;14.950;2023-04-06T02:46:33;1.60;;;1.23;;
11763;SDS011;5939;56.522;14.950;2023-04-06T02:48:59;3.13;;;1.43;;
11763;SDS011;5939;56.522;14.950;2023-04-06T02:51:25;1.47;;;1.37;;
11763;SDS011;5939;56.522;14.950;2023-04-06T02:53:54;2.33;;;1.20;;
11763;SDS011;5939;56.522;14.950;2023-04-06T02:56:19;3.13;;;1.47;;
11763;SDS011;5939;56.522;14.950;2023-04-06T02:58:48;5.17;;;1.87;;
11763;SDS011;5939;56.522;14.950;2023-04-06T03:01:13;1.53;;;1.20;;
11763;SDS011;5939;56.522;14.950;2023-04-06T03:03:39;1.43;;;1.20;;
11763;SDS011;5939;56.522;14.950;2023-04-06T03:06:05;3.53;;;1.37;;
11763;SDS011;5939;56.522;14.950;2023-04-06T03:08:31;2.50;;;1.17;;
11763;SDS011;5939;56.522;14.950;2023-04-06T03:10:56;2.83;;;1.10;;
11763;SDS011;5939;56.522;14.950;2023-04-06T03:13:22;1.80;;;1.10;;
11763;SDS011;5939;56.522;14.950;2023-04-06T03:15:48;2.67;;;1.50;;
11763;SDS011;5939;56.522;14.950;2023-04-06T03:18:13;2.70;;;1.40;;
11763;SDS011;5939;56.522;14.950;2023-04-06T03:20:39;2.00;;;1.37;;
11763;SDS011;5939;56.522;14.950;2023-04-06T03:23:05;2.37;;;1.23;;
11763;SDS011;5939;56.522;14.950;2023-04-06T03:25:31;2.10;;;1.30;;
11763;SDS011;5939;56.522;14.950;2023-04-06T03:27:56;1.53;;;0.80;;
11763;SDS011;5939;56.522;14.950;2023-04-06T03:30:22;2.70;;;1.53;;
11763;SDS011;5939;56.522;14.950;2023-04-06T03:32:48;1.33;;;1.20;;
11763;SDS011;5939;56.522;14.950;2023-04-06T03:35:13;1.93;;;1.10;;
11763;SDS011;5939;56.522;14.950;2023-04-06T03:37:39;2.30;;;1.00;;
11763;SDS011;5939;56.522;14.950;2023-04-06T03:40:05;3.07;;;1.20;;
11763;SDS011;5939;56.522;14.950;2023-04-06T03:42:31;2.53;;;1.20;;
11763;SDS011;5939;56.522;14.950;2023-04-06T03:44:57;3.37;;;1.00;;
11763;SDS011;5939;56.522;14.950;2023-04-06T03:47:23;2.13;;;1.37;;
11763;SDS011;5939;56.522;14.950;2023-04-06T03:49:49;2.50;;;1.10;;
11763;SDS011;5939;56.522;14.950;2023-04-06T03:52:15;1.83;;;1.13;;
11763;SDS011;5939;56.522;14.950;2023-04-06T03:54:41;2.00;;;1.47;;
11763;SDS011;5939;56.522;14.950;2023-04-06T03:57:07;3.13;;;1.27;;
11763;SDS011;5939;56.522;14.950;2023-04-06T03:59:32;1.67;;;1.20;;
11763;SDS011;5939;56.522;14.950;2023-04-06T04:01:58;2.77;;;1.23;;
11763;SDS011;5939;56.522;14.950;2023-04-06T04:04:24;2.43;;;1.03;;
11763;SDS011;5939;56.522;14.950;2023-04-06T04:06:49;2.40;;;1.10;;
11763;SDS011;5939;56.522;14.950;2023-04-06T04:09:15;3.37;;;1.33;;
11763;SDS011;5939;56.522;14.950;2023-04-06T04:11:41;1.43;;;0.80;;
11763;SDS011;5939;56.522;14.950;2023-04-06T04:14:06;3.23;;;1.30;;
11763;SDS011;5939;56.522;14.950;2023-04-06T04:16:32;1.77;;;1.10;;
11763;SDS011;5939;56.522;14.950;2023-04-06T04:18:58;1.43;;;1.10;;
11763;SDS011;5939;56.522;14.950;2023-04-06T04:21:23;1.00;;;0.90;;
11763;SDS011;5939;56.522;14.950;2023-04-06T04:23:50;3.13;;;1.27;;
11763;SDS011;5939;56.522;14.950;2023-04-06T04:26:17;2.03;;;1.17;;
11763;SDS011;5939;56.522;14.950;2023-04-06T04:28:43;1.80;;;1.10;;
11763;SDS011;5939;56.522;14.950;2023-04-06T04:31:09;2.63;;;1.20;;
11763;SDS011;5939;56.522;14.950;2023-04-06T04:33:35;1.20;;;1.10;;
11763;SDS011;5939;56.522;14.950;2023-04-06T04:36:00;1.43;;;1.00;;
11763;SDS011;5939;56.522;14.950;2023-04-06T04:38:26;1.03;;;0.90;;
11763;SDS011;5939;56.522;14.950;2023-04-06T04:40:52;1.37;;;1.27;;
11763;SDS011;5939;56.522;14.950;2023-04-06T04:43:18;2.73;;;1.20;;
11763;SDS011;5939;56.522;14.950;2023-04-06T04:45:43;1.30;;;1.10;;
11763;SDS011;5939;56.522;14.950;2023-04-06T04:48:09;1.20;;;1.00;;
11763;SDS011;5939;56.522;14.950;2023-04-06T04:50:35;2.00;;;1.27;;
11763;SDS011;5939;56.522;14.950;2023-04-06T04:53:01;1.93;;;1.00;;
11763;SDS011;5939;56.522;14.950;2023-04-06T04:55:27;0.97;;;0.90;;
11763;SDS011;5939;56.522;14.950;2023-04-06T04:57:54;1.73;;;1.10;;
11763;SDS011;5939;56.522;14.950;2023-04-06T05:00:19;1.77;;;1.10;;
11763;SDS011;5939;56.522;14.950;2023-04-06T05:02:45;2.30;;;1.10;;
11763;SDS011;5939;56.522;14.950;2023-04-06T05:05:11;1.70;;;1.10;;
11763;SDS011;5939;56.522;14.950;2023-04-06T05:07:37;1.93;;;1.20;;
11763;SDS011;5939;56.522;14.950;2023-04-06T05:10:02;1.53;;;1.37;;
11763;SDS011;5939;56.522;14.950;2023-04-06T05:12:28;1.40;;;0.90;;
11763;SDS011;5939;56.522;14.950;2023-04-06T05:14:54;3.10;;;1.10;;
11763;SDS011;5939;56.522;14.950;2023-04-06T05:17:20;2.00;;;1.20;;
11763;SDS011;5939;56.522;14.950;2023-04-06T05:19:45;2.40;;;1.10;;
11763;SDS011;5939;56.522;14.950;2023-04-06T05:22:11;1.60;;;1.10;;
11763;SDS011;5939;56.522;14.950;2023-04-06T05:24:39;2.23;;;1.30;;
11763;SDS011;5939;56.522;14.950;2023-04-06T05:27:05;1.50;;;1.17;;
11763;SDS011;5939;56.522;14.950;2023-04-06T05:29:31;1.80;;;1.20;;
11763;SDS011;5939;56.522;14.950;2023-04-06T05:31:57;2.40;;;1.43;;
11763;SDS011;5939;56.522;14.950;2023-04-06T05:34:22;3.03;;;1.20;;
11763;SDS011;5939;56.522;14.950;2023-04-06T05:36:48;1.43;;;1.07;;
11763;SDS011;5939;56.522;14.950;2023-04-06T05:39:14;2.10;;;1.13;;
11763;SDS011;5939;56.522;14.950;2023-04-06T05:41:40;2.87;;;1.30;;
11763;SDS011;5939;56.522;14.950;2023-04-06T05:44:06;1.90;;;1.27;;
11763;SDS011;5939;56.522;14.950;2023-04-06T05:46:31;1.30;;;1.20;;
11763;SDS011;5939;56.522;14.950;2023-04-06T05:48:57;1.20;;;1.00;;
11763;SDS011;5939;56.522;14.950;2023-04-06T05:51:23;2.53;;;1.47;;
11763;SDS011;5939;56.522;14.950;2023-04-06T05:53:49;1.37;;;1.00;;
11763;SDS011;5939;56.522;14.950;2023-04-06T05:56:14;1.80;;;1.30;;
11763;SDS011;5939;56.522;14.950;2023-04-06T05:58:40;2.00;;;1.20;;
11763;SDS011;5939;56.522;14.950;2023-04-06T06:01:06;1.60;;;1.23;;
11763;SDS011;5939;56.522;14.950;2023-04-06T06:03:32;2.57;;;1.20;;
11763;SDS011;5939;56.522;14.950;2023-04-06T06:06:01;1.10;;;0.97;;
11763;SDS011;5939;56.522;14.950;2023-04-06T06:08:27;2.87;;;1.27;;
11763;SDS011;5939;56.522;14.950;2023-04-06T06:10:53;2.00;;;1.50;;
11763;SDS011;5939;56.522;14.950;2023-04-06T06:13:19;3.13;;;1.30;;
11763;SDS011;5939;56.522;14.950;2023-04-06T06:15:45;2.20;;;1.40;;
11763;SDS011;5939;56.522;14.950;2023-04-06T06:18:11;1.30;;;1.10;;
11763;SDS011;5939;56.522;14.950;2023-04-06T06:20:36;1.67;;;1.33;;
11763;SDS011;5939;56.522;14.950;2023-04-06T06:23:02;2.27;;;1.30;;
11763;SDS011;5939;56.522;14.950;2023-04-06T06:25:28;1.87;;;1.20;;
11763;SDS011;5939;56.522;14.950;2023-04-06T06:27:55;2.60;;;1.30;;
11763;SDS011;5939;56.522;14.950;2023-04-06T06:30:22;1.73;;;1.30;;
11763;SDS011;5939;56.522;14.950;2023-04-06T06:32:47;2.30;;;1.50;;
11763;SDS011;5939;56.522;14.950;2023-04-06T06:35:13;3.07;;;1.33;;
11763;SDS011;5939;56.522;14.950;2023-04-06T06:37:39;2.50;;;1.20;;
11763;SDS011;5939;56.522;14.950;2023-04-06T06:40:05;2.43;;;1.17;;
11763;SDS011;5939;56.522;14.950;2023-04-06T06:42:31;2.03;;;1.50;;
11763;SDS011;5939;56.522;14.950;2023-04-06T06:44:56;1.60;;;1.37;;
11763;SDS011;5939;56.522;14.950;2023-04-06T06:47:22;3.13;;;1.50;;
11763;SDS011;5939;56.522;14.950;2023-04-06T06:49:48;2.97;;;1.60;;
11763;SDS011;5939;56.522;14.950;2023-04-06T06:52:13;2.47;;;1.40;;
11763;SDS011;5939;56.522;14.950;2023-04-06T06:54:39;3.13;;;1.67;;
11763;SDS011;5939;56.522;14.950;2023-04-06T06:57:05;2.37;;;1.70;;
11763;SDS011;5939;56.522;14.950;2023-04-06T06:59:30;1.70;;;1.57;;
11763;SDS011;5939;56.522;14.950;2023-04-06T07:01:56;3.33;;;1.60;;
11763;SDS011;5939;56.522;14.950;2023-04-06T07:04:22;3.53;;;1.97;;
11763;SDS011;5939;56.522;14.950;2023-04-06T07:06:47;3.07;;;1.67;;
11763;SDS011;5939;56.522;14.950;2023-04-06T07:09:13;3.33;;;1.63;;
11763;SDS011;5939;56.522;14.950;2023-04-06T07:11:39;2.77;;;1.60;;
11763;SDS011;5939;56.522;14.950;2023-04-06T07:14:04;5.00;;;1.80;;
11763;SDS011;5939;56.522;14.950;2023-04-06T07:16:30;3.77;;;1.93;;
11763;SDS011;5939;56.522;14.950;2023-04-06T07:18:56;5.73;;;1.90;;
11763;SDS011;5939;56.522;14.950;2023-04-06T07:21:21;2.30;;;2.00;;
11763;SDS011;5939;56.522;14.950;2023-04-06T07:23:47;3.90;;;2.00;;
11763;SDS011;5939;56.522;14.950;2023-04-06T07:26:13;2.60;;;1.73;;
11763;SDS011;5939;56.522;14.950;2023-04-06T07:28:39;3.23;;;2.07;;
11763;SDS011;5939;56.522;14.950;2023-04-06T07:31:05;4.00;;;2.30;;
11763;SDS011;5939;56.522;14.950;2023-04-06T07:33:31;3.70;;;2.03;;
11763;SDS011;5939;56.522;14.950;2023-04-06T07:35:56;4.00;;;2.33;;
11763;SDS011;5939;56.522;14.950;2023-04-06T07:38:23;3.80;;;2.30;;
11763;SDS011;5939;56.522;14.950;2023-04-06T07:40:49;3.27;;;2.33;;
11763;SDS011;5939;56.522;14.950;2023-04-06T07:43:15;4.37;;;2.57;;
11763;SDS011;5939;56.522;14.950;2023-04-06T07:45:41;3.50;;;2.43;;
11763;SDS011;5939;56.522;14.950;2023-04-06T07:48:07;4.70;;;2.47;;
11763;SDS011;5939;56.522;14.950;2023-04-06T07:50:32;5.10;;;2.87;;
11763;SDS011;5939;56.522;14.950;2023-04-06T07:52:58;4.37;;;2.70;;
11763;SDS011;5939;56.522;14.950;2023-04-06T07:55:24;4.30;;;2.70;;
11763;SDS011;5939;56.522;14.950;2023-04-06T07:57:50;5.77;;;2.90;;
11763;SDS011;5939;56.522;14.950;2023-04-06T08:00:16;5.57;;;2.57;;
11763;SDS011;5939;56.522;14.950;2023-04-06T08:02:42;5.50;;;3.07;;
11763;SDS011;5939;56.522;14.950;2023-04-06T08:05:07;3.87;;;2.83;;
11763;SDS011;5939;56.522;14.950;2023-04-06T08:07:33;7.17;;;3.17;;
11763;SDS011;5939;56.522;14.950;2023-04-06T08:10:00;4.03;;;3.10;;
11763;SDS011;5939;56.522;14.950;2023-04-06T08:12:26;4.17;;;2.60;;
11763;SDS011;5939;56.522;14.950;2023-04-06T08:14:51;5.50;;;3.27;;
11763;SDS011;5939;56.522;14.950;2023-04-06T08:17:17;5.87;;;3.17;;
11763;SDS011;5939;56.522;14.950;2023-04-06T08:19:43;4.80;;;2.77;;
11763;SDS011;5939;56.522;14.950;2023-04-06T08:22:10;6.03;;;3.00;;
11763;SDS011;5939;56.522;14.950;2023-04-06T08:24:36;4.20;;;2.90;;
11763;SDS011;5939;56.522;14.950;2023-04-06T08:27:02;5.40;;;3.53;;
11763;SDS011;5939;56.522;14.950;2023-04-06T08:29:28;4.80;;;3.10;;
11763;SDS011;5939;56.522;14.950;2023-04-06T08:31:53;3.20;;;2.80;;
11763;SDS011;5939;56.522;14.950;2023-04-06T08:34:20;5.70;;;3.00;;
11763;SDS011;5939;56.522;14.950;2023-04-06T08:36:46;5.60;;;3.03;;
11763;SDS011;5939;56.522;14.950;2023-04-06T08:39:12;4.57;;;3.03;;
11763;SDS011;5939;56.522;14.950;2023-04-06T08:41:38;3.57;;;3.07;;
11763;SDS011;5939;56.522;14.950;2023-04-06T08:44:07;5.90;;;3.07;;
11763;SDS011;5939;56.522;14.950;2023-04-06T08:46:33;3.77;;;2.80;;
11763;SDS011;5939;56.522;14.950;2023-04-06T08:48:59;4.10;;;2.80;;
11763;SDS011;5939;56.522;14.950;2023-04-06T08:51:27;5.17;;;2.70;;
11763;SDS011;5939;56.522;14.950;2023-04-06T08:53:54;5.10;;;2.80;;
11763;SDS011;5939;56.522;14.950;2023-04-06T08:56:23;4.30;;;3.23;;
11763;SDS011;5939;56.522;14.950;2023-04-06T08:58:50;6.83;;;3.27;;
11763;SDS011;5939;56.522;14.950;2023-04-06T09:01:18;4.67;;;3.10;;
11763;SDS011;5939;56.522;14.950;2023-04-06T09:03:46;4.20;;;2.83;;
11763;SDS011;5939;56.522;14.950;2023-04-06T09:06:14;5.13;;;2.90;;
11763;SDS011;5939;56.522;14.950;2023-04-06T09:08:40;3.43;;;2.63;;
11763;SDS011;5939;56.522;14.950;2023-04-06T09:11:07;3.77;;;2.60;;
11763;SDS011;5939;56.522;14.950;2023-04-06T09:13:53;4.80;;;2.70;;
11763;SDS011;5939;56.522;14.950;2023-04-06T09:16:20;5.07;;;3.03;;
11763;SDS011;5939;56.522;14.950;2023-04-06T09:18:47;5.00;;;2.67;;
11763;SDS011;5939;56.522;14.950;2023-04-06T09:21:13;5.00;;;3.40;;
11763;SDS011;5939;56.522;14.950;2023-04-06T09:23:42;4.20;;;2.90;;
11763;SDS011;5939;56.522;14.950;2023-04-06T09:28:48;2.97;;;2.63;;
11763;SDS011;5939;56.522;14.950;2023-04-06T09:31:16;3.37;;;2.77;;
11763;SDS011;5939;56.522;14.950;2023-04-06T09:33:46;5.87;;;2.90;;
11763;SDS011;5939;56.522;14.950;2023-04-06T09:36:12;3.50;;;2.60;;
11763;SDS011;5939;56.522;14.950;2023-04-06T09:38:56;3.27;;;2.73;;
11763;SDS011;5939;56.522;14.950;2023-04-06T09:41:27;5.97;;;2.80;;
11763;SDS011;5939;56.522;14.950;2023-04-06T09:44:03;4.17;;;2.63;;
11763;SDS011;5939;56.522;14.950;2023-04-06T09:46:33;3.47;;;2.70;;
11763;SDS011;5939;56.522;14.950;2023-04-06T09:49:04;3.83;;;2.40;;
11763;SDS011;5939;56.522;14.950;2023-04-06T09:52:16;5.17;;;3.27;;
11763;SDS011;5939;56.522;14.950;2023-04-06T09:54:43;3.97;;;2.53;;
11763;SDS011;5939;56.522;14.950;2023-04-06T09:57:22;5.47;;;2.83;;
11763;SDS011;5939;56.522;14.950;2023-04-06T10:00:05;3.27;;;2.57;;
11763;SDS011;5939;56.522;14.950;2023-04-06T10:02:49;4.97;;;3.03;;
11763;SDS011;5939;56.522;14.950;2023-04-06T10:08:09;4.33;;;2.97;;
11763;SDS011;5939;56.522;14.950;2023-04-06T10:10:36;3.93;;;2.90;;
11763;SDS011;5939;56.522;14.950;2023-04-06T10:13:02;4.87;;;3.00;;
11763;SDS011;5939;56.522;14.950;2023-04-06T10:15:29;3.33;;;2.67;;
11763;SDS011;5939;56.522;14.950;2023-04-06T10:17:59;4.90;;;2.77;;
11763;SDS011;5939;56.522;14.950;2023-04-06T10:25:51;3.67;;;2.80;;
11763;SDS011;5939;56.522;14.950;2023-04-06T10:28:18;4.43;;;2.80;;
11763;SDS011;5939;56.522;14.950;2023-04-06T10:30:44;5.47;;;2.80;;
11763;SDS011;5939;56.522;14.950;2023-04-06T10:33:17;4.83;;;3.07;;
11763;SDS011;5939;56.522;14.950;2023-04-06T10:35:44;3.83;;;2.57;;
11763;SDS011;5939;56.522;14.950;2023-04-06T10:38:11;8.87;;;3.50;;
11763;SDS011;5939;56.522;14.950;2023-04-06T10:40:39;3.60;;;2.83;;
11763;SDS011;5939;56.522;14.950;2023-04-06T10:43:13;4.43;;;2.80;;
11763;SDS011;5939;56.522;14.950;2023-04-06T10:45:52;4.10;;;2.83;;
11763;SDS011;5939;56.522;14.950;2023-04-06T10:48:24;4.00;;;2.90;;
11763;SDS011;5939;56.522;14.950;2023-04-06T10:50:51;7.93;;;3.07;;
11763;SDS011;5939;56.522;14.950;2023-04-06T10:53:25;8.57;;;3.97;;
11763;SDS011;5939;56.522;14.950;2023-04-06T10:55:52;5.73;;;3.00;;
11763;SDS011;5939;56.522;14.950;2023-04-06T10:58:19;3.50;;;2.77;;
11763;SDS011;5939;56.522;14.950;2023-04-06T11:00:46;4.47;;;2.60;;
11763;SDS011;5939;56.522;14.950;2023-04-06T11:03:12;5.63;;;3.00;;
11763;SDS011;5939;56.522;14.950;2023-04-06T11:05:38;4.87;;;2.97;;
11763;SDS011;5939;56.522;14.950;2023-04-06T11:08:30;3.83;;;3.00;;
11763;SDS011;5939;56.522;14.950;2023-04-06T11:11:03;4.43;;;2.60;;
11763;SDS011;5939;56.522;14.950;2023-04-06T11:13:37;5.77;;;2.87;;
11763;SDS011;5939;56.522;14.950;2023-04-06T11:16:04;3.83;;;2.70;;
11763;SDS011;5939;56.522;14.950;2023-04-06T11:18:31;5.30;;;2.90;;
11763;SDS011;5939;56.522;14.950;2023-04-06T11:20:56;4.43;;;2.70;;
11763;SDS011;5939;56.522;14.950;2023-04-06T11:23:23;5.80;;;2.80;;
11763;SDS011;5939;56.522;14.950;2023-04-06T11:25:53;4.63;;;3.10;;
11763;SDS011;5939;56.522;14.950;2023-04-06T11:28:19;3.20;;;2.33;;
11763;SDS011;5939;56.522;14.950;2023-04-06T11:30:45;4.53;;;2.60;;
11763;SDS011;5939;56.522;14.950;2023-04-06T11:33:19;4.23;;;2.80;;
11763;SDS011;5939;56.522;14.950;2023-04-06T11:35:46;5.27;;;2.73;;
11763;SDS011;5939;56.522;14.950;2023-04-06T11:38:12;5.17;;;3.00;;
11763;SDS011;5939;56.522;14.950;2023-04-06T11:40:37;5.40;;;2.80;;
11763;SDS011;5939;56.522;14.950;2023-04-06T11:43:03;3.57;;;2.70;;
11763;SDS011;5939;56.522;14.950;2023-04-06T11:45:39;4.73;;;2.97;;
11763;SDS011;5939;56.522;14.950;2023-04-06T11:48:17;5.07;;;2.87;;
11763;SDS011;5939;56.522;14.950;2023-04-06T11:50:43;3.77;;;2.40;;
11763;SDS011;5939;56.522;14.950;2023-04-06T11:53:12;3.60;;;2.60;;
11763;SDS011;5939;56.522;14.950;2023-04-06T11:55:38;4.00;;;2.17;;
11763;SDS011;5939;56.522;14.950;2023-04-06T11:58:05;4.23;;;2.80;;
11763;SDS011;5939;56.522;14.950;2023-04-06T12:00:31;3.67;;;2.80;;
11763;SDS011;5939;56.522;14.950;2023-04-06T12:02:59;4.10;;;2.63;;
11763;SDS011;5939;56.522;14.950;2023-04-06T12:05:25;4.50;;;2.60;;
11763;SDS011;5939;56.522;14.950;2023-04-06T12:07:51;3.20;;;2.60;;
11763;SDS011;5939;56.522;14.950;2023-04-06T12:10:17;3.10;;;2.47;;
11763;SDS011;5939;56.522;14.950;2023-04-06T12:12:43;4.50;;;2.90;;
11763;SDS011;5939;56.522;14.950;2023-04-06T12:15:09;3.57;;;2.63;;
11763;SDS011;5939;56.522;14.950;2023-04-06T12:17:35;3.67;;;2.57;;
11763;SDS011;5939;56.522;14.950;2023-04-06T12:20:02;4.47;;;2.70;;
11763;SDS011;5939;56.522;14.950;2023-04-06T12:22:28;4.00;;;2.40;;
11763;SDS011;5939;56.522;14.950;2023-04-06T12:24:54;3.40;;;2.30;;
11763;SDS011;5939;56.522;14.950;2023-04-06T12:27:20;3.93;;;2.57;;
11763;SDS011;5939;56.522;14.950;2023-04-06T12:29:46;3.17;;;2.47;;
11763;SDS011;5939;56.522;14.950;2023-04-06T12:32:12;3.17;;;2.20;;
11763;SDS011;5939;56.522;14.950;2023-04-06T12:34:38;2.93;;;2.30;;
11763;SDS011;5939;56.522;14.950;2023-04-06T12:37:03;3.73;;;2.40;;
11763;SDS011;5939;56.522;14.950;2023-04-06T12:39:29;3.80;;;2.50;;
11763;SDS011;5939;56.522;14.950;2023-04-06T12:41:55;4.17;;;2.10;;
11763;SDS011;5939;56.522;14.950;2023-04-06T12:44:22;3.77;;;2.50;;
11763;SDS011;5939;56.522;14.950;2023-04-06T12:46:48;4.57;;;2.70;;
11763;SDS011;5939;56.522;14.950;2023-04-06T12:49:13;4.23;;;2.43;;
11763;SDS011;5939;56.522;14.950;2023-04-06T12:51:41;3.63;;;2.30;;
11763;SDS011;5939;56.522;14.950;2023-04-06T12:54:07;3.50;;;2.60;;
11763;SDS011;5939;56.522;14.950;2023-04-06T12:56:33;3.47;;;2.40;;
11763;SDS011;5939;56.522;14.950;2023-04-06T12:58:58;3.47;;;2.50;;
11763;SDS011;5939;56.522;14.950;2023-04-06T13:01:24;3.20;;;2.20;;
11763;SDS011;5939;56.522;14.950;2023-04-06T13:03:51;2.87;;;2.50;;
11763;SDS011;5939;56.522;14.950;2023-04-06T13:06:17;4.10;;;2.23;;
11763;SDS011;5939;56.522;14.950;2023-04-06T13:08:42;3.77;;;2.40;;
11763;SDS011;5939;56.522;14.950;2023-04-06T13:11:08;3.83;;;2.47;;
11763;SDS011;5939;56.522;14.950;2023-04-06T13:13:34;4.13;;;2.63;;
11763;SDS011;5939;56.522;14.950;2023-04-06T13:16:02;4.73;;;2.70;;
11763;SDS011;5939;56.522;14.950;2023-04-06T13:18:30;4.17;;;2.43;;
11763;SDS011;5939;56.522;14.950;2023-04-06T13:20:57;3.60;;;2.10;;
11763;SDS011;5939;56.522;14.950;2023-04-06T13:23:24;2.90;;;2.40;;
11763;SDS011;5939;56.522;14.950;2023-04-06T13:25:57;4.67;;;2.37;;
11763;SDS011;5939;56.522;14.950;2023-04-06T13:28:28;3.93;;;2.57;;
11763;SDS011;5939;56.522;14.950;2023-04-06T13:30:54;2.53;;;2.30;;
11763;SDS011;5939;56.522;14.950;2023-04-06T13:33:20;3.53;;;2.53;;
11763;SDS011;5939;56.522;14.950;2023-04-06T13:35:46;4.10;;;2.17;;
11763;SDS011;5939;56.522;14.950;2023-04-06T13:38:13;4.43;;;2.47;;
11763;SDS011;5939;56.522;14.950;2023-04-06T13:40:41;3.50;;;2.40;;
11763;SDS011;5939;56.522;14.950;2023-04-06T13:43:07;3.37;;;2.43;;
11763;SDS011;5939;56.522;14.950;2023-04-06T13:45:33;3.50;;;2.80;;
11763;SDS011;5939;56.522;14.950;2023-04-06T13:47:59;2.50;;;2.20;;
11763;SDS011;5939;56.522;14.950;2023-04-06T13:50:25;3.33;;;2.17;;
11763;SDS011;5939;56.522;14.950;2023-04-06T13:52:51;3.37;;;2.50;;
11763;SDS011;5939;56.522;14.950;2023-04-06T13:55:17;3.40;;;2.50;;
11763;SDS011;5939;56.522;14.950;2023-04-06T13:57:43;2.90;;;2.50;;
11763;SDS011;5939;56.522;14.950;2023-04-06T14:00:09;3.00;;;2.37;;
11763;SDS011;5939;56.522;14.950;2023-04-06T14:02:37;3.10;;;2.30;;
11763;SDS011;5939;56.522;14.950;2023-04-06T14:05:04;5.43;;;2.43;;
11763;SDS011;5939;56.522;14.950;2023-04-06T14:07:30;3.17;;;2.50;;
11763;SDS011;5939;56.522;14.950;2023-04-06T14:09:56;3.97;;;2.70;;
11763;SDS011;5939;56.522;14.950;2023-04-06T14:12:21;4.00;;;2.23;;
11763;SDS011;5939;56.522;14.950;2023-04-06T14:14:47;3.90;;;2.40;;
11763;SDS011;5939;56.522;14.950;2023-04-06T14:17:13;3.23;;;2.50;;
11763;SDS011;5939;56.522;14.950;2023-04-06T14:19:38;4.20;;;2.70;;
11763;SDS011;5939;56.522;14.950;2023-04-06T14:22:04;3.87;;;2.30;;
11763;SDS011;5939;56.522;14.950;2023-04-06T14:24:30;3.37;;;2.57;;
11763;SDS011;5939;56.522;14.950;2023-04-06T14:26:56;2.97;;;2.23;;
11763;SDS011;5939;56.522;14.950;2023-04-06T14:29:22;3.30;;;2.53;;
11763;SDS011;5939;56.522;14.950;2023-04-06T14:31:48;3.57;;;2.63;;
11763;SDS011;5939;56.522;14.950;2023-04-06T14:34:14;4.10;;;2.70;;
11763;SDS011;5939;56.522;14.950;2023-04-06T14:36:41;3.20;;;2.50;;
11763;SDS011;5939;56.522;14.950;2023-04-06T14:39:07;4.07;;;2.47;;
11763;SDS011;5939;56.522;14.950;2023-04-06T14:41:34;3.40;;;2.50;;
11763;SDS011;5939;56.522;14.950;2023-04-06T14:44:00;3.33;;;2.50;;
11763;SDS011;5939;56.522;14.950;2023-04-06T14:46:27;3.47;;;2.40;;
11763;SDS011;5939;56.522;14.950;2023-04-06T14:48:56;3.43;;;2.30;;
11763;SDS011;5939;56.522;14.950;2023-04-06T14:51:26;4.53;;;2.63;;
11763;SDS011;5939;56.522;14.950;2023-04-06T14:53:52;2.90;;;2.40;;
11763;SDS011;5939;56.522;14.950;2023-04-06T14:56:19;3.87;;;2.50;;